Airfield :
LOGIN :

Register | Disclaimer

   EN    FR    IT 

 










Legend :    VFR   Marginal VFR   IFR   Intensive IFR   Very Intensive IFR
Visi :
Ceiling :
>= 8 km
>= 3000ft
5 to 8 km
1000 to 3000 ft
1500m to 5 km
500 to 1000 ft
800 to 1500m
200 to 500 ft
< 800m
< 200 ft
Symbols :   Thunderstorms  Fog  Heavy snow  Heavy precipitations  Wind > 20 kt
SIGMETs :     Misc.  Thunderstorms  Icing  Turbulence  Mountain Waves  Volcanic Ashes






- Airport Elevation : 160 ft
- IATA code : LRT


LFRH - Lorient Lann Bihoue

CURRENT METAR :
  • 241130Z AUTO 21018KT 2500 DZ BR BKN003 OVC007 15/14 Q1009 TEMPO 4000 -RADZ BKN005 BECMG 21020G40KT

EXPIRED METARs :
  • 241100Z AUTO 21018G29KT 180V240 9999 OVC005 15/15 Q1009 TEMPO 4500 -RADZ
  • 241030Z AUTO 22019KT 180V240 6000 OVC006 15/15 Q1010 TEMPO 4500 -RADZ BKN004 BECMG 20020G35KT
  • 241000Z AUTO 21021KT 180V240 9999 OVC005 15/15 Q1010 TEMPO 4500 -RADZ BECMG 20020G35KT
  • 240930Z AUTO 20016KT 180V240 2900 -DZ BR OVC005 15/14 Q1010 TEMPO 4500 -RADZ BECMG 20020G35KT
  • 240900Z AUTO 20016KT 7000 2400 -RA OVC006 15/14 Q1010 TEMPO 4500 -RADZ BKN004 BECMG 20020G35KT
  • 240830Z AUTO 19014KT 9999 BKN009 OVC014 15/14 Q1011 TEMPO 4500 -RADZ BKN004 BECMG 20020G35KT

TAF TAF LFRH
Valid from the 24 at 12:00 until the 25 at 12:00 UTC


241100Z 2412/2512 21020G40KT 9999 BKN008 BKN012
TEMPO 2412/2414 4000 -RADZ BKN005
BECMG 2416/2418 20025G50KT 2500 RA BKN004 OVC008
TEMPO 2418/2421 1400 +RA
BECMG 2420/2422 23015G30KT 9999 NSW BKN015
TEMPO 2420/2423 4000 -SHRA SCT015TCU
BECMG 2501/2503 22015KT
TEMPO 2505/2512 23015G25KT 3000 SHRA SCT015TCU BKN020CB



MET'MAP, your aeronautical weather chart ! - Copyright ORBIFLY December 2007 - Disclaimer

ORBIFLY MET'MAP TEAM :

Programming & Development : Alexandra Zaïnal
Concept & original design : Baudouin d'Aumeries
Assistance for programming : Marc-Olivier Méhu
Technical & hardware support : Manuel Goepfert

Contact : metmap@orbifly.com




SOURCES & CREDITS :

   NOAA